createdAt,value
2022-09-10T00:01:40.042Z,21.83
2022-09-10T00:04:12.806Z,21.79
2022-09-10T00:06:42.536Z,21.74
2022-09-10T00:09:12.911Z,21.68
2022-09-10T00:11:42.346Z,21.65
2022-09-10T00:14:18.561Z,21.63
2022-09-10T00:16:48.163Z,21.63
2022-09-10T00:19:17.723Z,21.64
2022-09-10T00:21:46.964Z,21.67
2022-09-10T00:24:15.607Z,21.70
2022-09-10T00:26:44.294Z,21.72
2022-09-10T00:29:17.997Z,21.74
2022-09-10T00:31:47.362Z,21.76
2022-09-10T00:34:16.191Z,21.79
2022-09-10T00:36:44.878Z,21.82
2022-09-10T00:39:16.614Z,21.86
2022-09-10T00:41:47.575Z,21.88
2022-09-10T00:44:40.743Z,21.90
2022-09-10T00:47:22.632Z,21.87
2022-09-10T00:50:07.088Z,21.82
2022-09-10T00:52:39.609Z,21.82
2022-09-10T00:55:10.233Z,21.81
2022-09-10T00:57:39.803Z,21.79
2022-09-10T01:00:12.610Z,21.80
2022-09-10T01:02:43.351Z,21.81
2022-09-10T01:05:13.399Z,21.81
2022-09-10T01:07:43.227Z,21.84
2022-09-10T01:10:18.502Z,21.88
2022-09-10T01:13:25.838Z,21.91
2022-09-10T01:16:24.096Z,21.96
2022-09-10T01:19:12.104Z,22.01
2022-09-10T01:22:08.341Z,22.06
2022-09-10T01:24:58.529Z,22.10
2022-09-10T01:27:35.923Z,22.13
2022-09-10T01:30:15.033Z,22.14
2022-09-10T01:32:46.606Z,22.15
2022-09-10T01:35:28.750Z,22.15
2022-09-10T01:38:05.469Z,22.14
2022-09-10T01:40:37.751Z,22.13
2022-09-10T01:43:12.095Z,22.12
2022-09-10T01:46:14.450Z,22.11
2022-09-10T01:48:57.885Z,22.08
2022-09-10T01:51:53.603Z,22.06
2022-09-10T01:54:49.425Z,22.05
2022-09-10T01:57:39.718Z,22.03
2022-09-10T02:00:15.611Z,22.01
2022-09-10T02:03:11.616Z,21.99
2022-09-10T02:05:44.691Z,21.99
2022-09-10T02:08:17.267Z,21.98
2022-09-10T02:10:56.909Z,21.97
2022-09-10T02:13:31.313Z,21.93
2022-09-10T02:16:37.902Z,21.93
2022-09-10T02:19:08.583Z,21.93
2022-09-10T02:21:37.943Z,21.92
2022-09-10T02:24:10.229Z,21.94
2022-09-10T02:26:44.429Z,21.96
2022-09-10T02:29:15.689Z,21.99
2022-09-10T02:31:44.949Z,22.01
2022-09-10T02:34:16.408Z,22.02
2022-09-10T02:36:47.266Z,22.03
2022-09-10T02:39:16.263Z,22.02
2022-09-10T02:41:48.535Z,22.02
2022-09-10T02:44:18.091Z,22.02
2022-09-10T02:46:46.723Z,22.01
2022-09-10T02:49:15.722Z,21.99
2022-09-10T02:51:45.016Z,21.94
2022-09-10T02:54:14.011Z,21.89
2022-09-10T02:56:44.131Z,21.84
2022-09-10T02:59:13.023Z,21.75
2022-09-10T03:01:42.758Z,21.63
2022-09-10T03:04:11.625Z,21.57
2022-09-10T03:06:41.339Z,21.53
2022-09-10T03:09:11.547Z,21.54
2022-09-10T03:11:41.167Z,21.56
2022-09-10T03:14:11.213Z,21.60
2022-09-10T03:16:41.338Z,21.64
2022-09-10T03:19:09.990Z,21.67
2022-09-10T03:21:39.647Z,21.71
2022-09-10T03:24:10.642Z,21.75
2022-09-10T03:26:39.738Z,21.77
2022-09-10T03:29:08.736Z,21.79
2022-09-10T03:31:40.177Z,21.79
2022-09-10T03:34:12.912Z,21.81
2022-09-10T03:36:42.370Z,21.80
2022-09-10T03:39:11.361Z,21.71
2022-09-10T03:41:40.071Z,21.54
2022-09-10T03:44:10.678Z,21.40
2022-09-10T03:46:40.082Z,21.21
2022-09-10T03:49:09.480Z,21.03
2022-09-10T03:51:38.176Z,20.93
2022-09-10T03:54:07.168Z,20.85
2022-09-10T03:56:35.758Z,20.81
2022-09-10T03:59:04.443Z,20.75
2022-09-10T04:01:33.332Z,20.70
2022-09-10T04:04:03.423Z,20.68
2022-09-10T04:06:35.930Z,20.62
2022-09-10T04:09:05.744Z,20.59
2022-09-10T04:11:35.305Z,20.62
2022-09-10T04:14:04.342Z,20.64
2022-09-10T04:16:33.190Z,20.59
2022-09-10T04:19:02.065Z,20.58
2022-09-10T04:21:32.038Z,20.54
2022-09-10T04:24:01.138Z,20.53
2022-09-10T04:26:30.558Z,20.56
2022-09-10T04:28:59.682Z,20.59
2022-09-10T04:31:28.565Z,20.58
2022-09-10T04:34:02.335Z,20.59
2022-09-10T04:36:32.347Z,20.57
2022-09-10T04:39:01.242Z,20.58
2022-09-10T04:41:30.747Z,20.61
2022-09-10T04:43:59.741Z,20.64
2022-09-10T04:46:28.529Z,20.69
2022-09-10T04:49:00.799Z,20.68
2022-09-10T04:51:29.587Z,20.70
2022-09-10T04:53:59.746Z,20.73
2022-09-10T04:56:33.208Z,20.75
2022-09-10T04:59:01.802Z,20.78
2022-09-10T05:01:35.200Z,20.81
2022-09-10T05:04:05.208Z,20.83
2022-09-10T05:06:37.073Z,20.87
2022-09-10T05:09:07.498Z,20.92
2022-09-10T05:11:37.533Z,20.93
2022-09-10T05:14:07.824Z,20.93
2022-09-10T05:16:37.396Z,20.95
2022-09-10T05:19:06.747Z,20.97
2022-09-10T05:21:42.243Z,21.00
2022-09-10T05:24:12.214Z,21.03
2022-09-10T05:26:42.321Z,21.08
2022-09-10T05:29:12.450Z,21.15
2022-09-10T05:31:42.289Z,21.22
2022-09-10T05:34:11.259Z,21.29
2022-09-10T05:36:41.774Z,21.41
2022-09-10T05:39:10.891Z,21.48
2022-09-10T05:41:40.595Z,21.56
2022-09-10T05:44:09.384Z,21.68
2022-09-10T05:46:38.250Z,21.73
2022-09-10T05:49:13.399Z,21.76
2022-09-10T05:51:42.714Z,21.89
2022-09-10T05:54:13.017Z,21.97
2022-09-10T05:56:42.647Z,21.99
2022-09-10T05:59:11.539Z,22.00
2022-09-10T06:01:44.970Z,22.02
2022-09-10T06:04:13.931Z,21.99
2022-09-10T06:06:43.026Z,22.00
2022-09-10T06:09:14.990Z,22.04
2022-09-10T06:12:13.168Z,22.10
2022-09-10T06:14:42.572Z,22.19
2022-09-10T06:17:12.690Z,22.28
2022-09-10T06:19:45.166Z,22.38
2022-09-10T06:22:15.506Z,22.49
2022-09-10T06:24:49.608Z,22.58
2022-09-10T06:27:19.009Z,22.69
2022-09-10T06:29:48.001Z,22.82
2022-09-10T06:32:16.828Z,22.90
2022-09-10T06:34:46.502Z,22.95
2022-09-10T06:37:15.391Z,22.99
2022-09-10T06:39:44.220Z,23.05
2022-09-10T06:42:13.281Z,23.10
2022-09-10T06:45:08.488Z,23.15
2022-09-10T06:48:36.723Z,23.17
2022-09-10T06:50:51.024Z,23.20
2022-09-10T06:53:24.208Z,23.21
2022-09-10T06:55:53.820Z,23.21
2022-09-10T06:58:24.946Z,23.18
2022-09-10T07:00:53.896Z,23.14
2022-09-10T07:03:24.464Z,23.14
2022-09-10T07:05:56.102Z,23.19
2022-09-10T07:08:28.523Z,23.28
2022-09-10T07:11:05.240Z,23.38
2022-09-10T07:13:35.243Z,23.47
2022-09-10T07:16:05.297Z,23.52
2022-09-10T07:18:34.731Z,23.54
2022-09-10T07:21:09.299Z,23.57
2022-09-10T07:23:45.464Z,23.60
2022-09-10T07:26:22.706Z,23.67
2022-09-10T07:28:54.361Z,23.78
2022-09-10T07:31:30.367Z,23.86
2022-09-10T07:34:04.630Z,23.92
2022-09-10T07:36:33.425Z,23.96
2022-09-10T07:39:04.777Z,24.05
2022-09-10T07:41:37.458Z,24.15
2022-09-10T07:44:09.014Z,24.23
2022-09-10T07:46:41.382Z,24.32
2022-09-10T07:49:13.539Z,24.37
2022-09-10T07:51:44.018Z,24.42
2022-09-10T07:54:17.301Z,24.44
2022-09-10T07:56:53.031Z,24.45
2022-09-10T07:59:22.233Z,24.49
2022-09-10T08:02:02.266Z,24.56
2022-09-10T08:04:36.615Z,24.61
2022-09-10T08:07:08.052Z,24.66
2022-09-10T08:09:38.784Z,24.73
2022-09-10T08:12:08.873Z,24.81
2022-09-10T08:14:40.354Z,24.86
2022-09-10T08:17:09.762Z,24.89
2022-09-10T08:19:41.940Z,24.91
2022-09-10T08:22:13.713Z,24.92
2022-09-10T08:24:49.180Z,24.95
2022-09-10T08:27:18.327Z,24.99
2022-09-10T08:29:48.145Z,25.02
2022-09-10T08:32:18.055Z,25.04
2022-09-10T08:34:46.748Z,25.07
2022-09-10T08:37:16.975Z,25.09
2022-09-10T08:39:46.223Z,25.10
2022-09-10T08:42:22.938Z,25.09
2022-09-10T08:45:18.764Z,25.07
2022-09-10T08:48:03.525Z,25.04
2022-09-10T08:50:50.646Z,25.04
2022-09-10T08:53:28.585Z,25.03
2022-09-10T08:56:06.571Z,25.04
2022-09-10T08:58:52.031Z,25.07
2022-09-10T09:01:31.331Z,25.09
2022-09-10T09:04:06.304Z,25.10
2022-09-10T09:06:47.175Z,25.12
2022-09-10T09:09:16.887Z,25.16
2022-09-10T09:11:57.237Z,25.21
2022-09-10T09:14:46.116Z,25.25
2022-09-10T09:17:29.078Z,25.33
2022-09-10T09:20:05.096Z,25.40
2022-09-10T09:22:39.977Z,25.47
2022-09-10T09:25:24.367Z,25.53
2022-09-10T09:27:56.723Z,25.61
2022-09-10T09:30:34.098Z,25.71
2022-09-10T09:33:15.416Z,25.78
2022-09-10T09:35:55.677Z,25.77
2022-09-10T09:38:30.777Z,25.76
2022-09-10T09:41:08.208Z,25.78
2022-09-10T09:43:52.758Z,25.82
2022-09-10T09:46:24.903Z,25.87
2022-09-10T09:49:02.432Z,25.90
2022-09-10T09:51:35.730Z,25.97
2022-09-10T09:54:46.617Z,26.06
2022-09-10T09:57:02.177Z,26.20
2022-09-10T09:59:32.167Z,26.33
2022-09-10T10:02:14.725Z,26.40
2022-09-10T10:04:56.688Z,26.42
2022-09-10T10:07:31.937Z,26.41
2022-09-10T10:10:01.958Z,26.35
2022-09-10T10:12:32.036Z,26.32
2022-09-10T10:15:03.130Z,26.32
2022-09-10T10:17:38.295Z,26.35
2022-09-10T10:20:14.382Z,26.37
2022-09-10T10:22:45.933Z,26.37
2022-09-10T10:25:33.813Z,26.36
2022-09-10T10:28:03.049Z,26.35
2022-09-10T10:30:33.460Z,26.39
2022-09-10T10:33:04.028Z,26.42
2022-09-10T10:36:03.045Z,26.43
2022-09-10T10:39:01.878Z,26.45
2022-09-10T10:42:04.718Z,26.43
2022-09-10T10:44:36.380Z,26.42
2022-09-10T10:47:29.314Z,26.43
2022-09-10T10:50:09.399Z,26.46
2022-09-10T10:53:02.471Z,26.49
2022-09-10T10:55:57.582Z,26.53
2022-09-10T10:58:39.791Z,26.59
2022-09-10T11:01:42.770Z,26.63
2022-09-10T11:04:31.527Z,26.66
2022-09-10T11:07:30.401Z,26.66
2022-09-10T11:10:07.227Z,26.66
2022-09-10T11:12:48.124Z,26.65
2022-09-10T11:15:31.280Z,26.67
2022-09-10T11:18:11.646Z,26.75
2022-09-10T11:20:56.633Z,26.80
2022-09-10T11:23:33.331Z,26.86
2022-09-10T11:26:25.237Z,26.90
2022-09-10T11:29:36.308Z,26.87
2022-09-10T11:32:08.890Z,26.82
2022-09-10T11:34:56.681Z,26.79
2022-09-10T11:37:48.246Z,26.80
2022-09-10T11:40:33.730Z,26.84
2022-09-10T11:43:20.671Z,26.88
2022-09-10T11:45:56.473Z,26.96
2022-09-10T11:49:22.392Z,27.04
2022-09-10T11:51:52.812Z,27.12
2022-09-10T11:54:31.905Z,27.16
2022-09-10T11:57:35.280Z,27.18
2022-09-10T12:00:12.290Z,27.18
2022-09-10T12:03:09.627Z,27.14
2022-09-10T12:05:44.747Z,27.12
2022-09-10T12:08:29.893Z,27.11
2022-09-10T12:11:28.229Z,27.12
2022-09-10T12:13:57.991Z,27.15
2022-09-10T12:16:42.070Z,27.21
2022-09-10T12:19:47.906Z,27.28
2022-09-10T12:22:26.475Z,27.34
2022-09-10T12:25:07.563Z,27.40
2022-09-10T12:28:02.010Z,27.43
2022-09-10T12:30:36.387Z,27.43
2022-09-10T12:33:29.628Z,27.45
2022-09-10T12:35:58.625Z,27.48
2022-09-10T12:39:04.494Z,27.47
2022-09-10T12:41:33.714Z,27.44
2022-09-10T12:44:23.726Z,27.42
2022-09-10T12:47:17.593Z,27.40
2022-09-10T12:49:47.101Z,27.37
2022-09-10T12:52:55.572Z,27.33
2022-09-10T12:55:43.158Z,27.28
2022-09-10T12:58:33.808Z,27.25
2022-09-10T13:01:32.443Z,27.23
2022-09-10T13:04:02.970Z,27.23
2022-09-10T13:07:07.673Z,27.22
2022-09-10T13:09:40.244Z,27.22
2022-09-10T13:12:24.291Z,27.22
2022-09-10T13:14:57.936Z,27.21
2022-09-10T13:17:38.083Z,27.20
2022-09-10T13:20:35.065Z,27.20
2022-09-10T13:23:09.643Z,27.19
2022-09-10T13:25:43.060Z,27.18
2022-09-10T13:28:35.597Z,27.18
2022-09-10T13:31:11.438Z,27.16
2022-09-10T13:34:03.592Z,27.12
2022-09-10T13:37:02.508Z,27.07
2022-09-10T13:39:43.354Z,27.03
2022-09-10T13:42:43.022Z,27.00
2022-09-10T13:45:16.892Z,26.96
2022-09-10T13:47:48.158Z,26.96
2022-09-10T13:50:31.561Z,26.94
2022-09-10T13:53:00.914Z,26.92
2022-09-10T13:55:32.057Z,26.86
2022-09-10T13:58:17.477Z,26.85
2022-09-10T14:00:59.073Z,26.83
2022-09-10T14:03:36.071Z,26.80
2022-09-10T14:06:30.042Z,26.80
2022-09-10T14:09:05.818Z,26.78
2022-09-10T14:11:41.597Z,26.78
2022-09-10T14:14:23.278Z,26.77
2022-09-10T14:16:56.552Z,26.76
2022-09-10T14:19:28.598Z,26.74
2022-09-10T14:21:58.476Z,26.72
2022-09-10T14:24:30.668Z,26.71
2022-09-10T14:27:26.398Z,26.70
2022-09-10T14:29:58.343Z,26.70
2022-09-10T14:32:34.546Z,26.70
2022-09-10T14:35:41.121Z,26.70
2022-09-10T14:38:26.870Z,26.70
2022-09-10T14:41:06.658Z,26.67
2022-09-10T14:43:40.968Z,26.64
2022-09-10T14:46:35.194Z,26.62
2022-09-10T14:49:11.608Z,26.58
2022-09-10T14:51:41.221Z,26.54
2022-09-10T14:54:12.265Z,26.50
2022-09-10T14:56:46.778Z,26.46
2022-09-10T14:59:23.382Z,26.43
2022-09-10T15:01:54.280Z,26.39
2022-09-10T15:04:27.072Z,26.36
2022-09-10T15:07:00.697Z,26.34
2022-09-10T15:09:31.748Z,26.31
2022-09-10T15:12:05.903Z,26.28
2022-09-10T15:14:37.179Z,26.25
2022-09-10T15:17:06.813Z,26.20
2022-09-10T15:19:36.282Z,26.15
2022-09-10T15:22:05.157Z,26.10
2022-09-10T15:24:47.413Z,26.06
2022-09-10T15:27:22.482Z,26.02
2022-09-10T15:29:52.174Z,25.98
2022-09-10T15:32:31.155Z,25.95
2022-09-10T15:35:01.799Z,25.91
2022-09-10T15:37:36.627Z,25.88
2022-09-10T15:40:06.599Z,25.86
2022-09-10T15:42:38.185Z,25.83
2022-09-10T15:45:16.496Z,25.79
2022-09-10T15:47:46.460Z,25.75
2022-09-10T15:50:18.182Z,25.70
2022-09-10T15:52:48.117Z,25.65
2022-09-10T15:55:19.677Z,25.60
2022-09-10T15:57:52.521Z,25.54
2022-09-10T16:00:22.267Z,25.48
2022-09-10T16:02:56.889Z,25.43
2022-09-10T16:05:40.343Z,25.34
2022-09-10T16:08:12.802Z,25.28
2022-09-10T16:10:47.041Z,25.24
2022-09-10T16:13:16.126Z,25.18
2022-09-10T16:15:45.545Z,25.12
2022-09-10T16:18:14.509Z,25.08
2022-09-10T16:20:43.919Z,25.04
2022-09-10T16:23:13.237Z,24.98
2022-09-10T16:25:52.438Z,24.91
2022-09-10T16:28:22.366Z,24.88
2022-09-10T16:30:51.915Z,24.84
2022-09-10T16:33:20.557Z,24.81
2022-09-10T16:35:49.346Z,24.75
2022-09-10T16:38:18.135Z,24.69
2022-09-10T16:40:47.436Z,24.66
2022-09-10T16:43:16.238Z,24.64
2022-09-10T16:45:51.331Z,24.61
2022-09-10T16:48:19.953Z,24.59
2022-09-10T16:50:48.633Z,24.56
2022-09-10T16:53:17.826Z,24.53
2022-09-10T16:55:46.520Z,24.49
2022-09-10T16:58:15.203Z,24.46
2022-09-10T17:00:44.922Z,24.43
2022-09-10T17:03:14.113Z,24.40
2022-09-10T17:05:45.124Z,24.37
2022-09-10T17:08:13.742Z,24.35
2022-09-10T17:10:42.440Z,24.33
2022-09-10T17:13:11.730Z,24.31
2022-09-10T17:15:40.871Z,24.28
2022-09-10T17:18:12.252Z,24.25
2022-09-10T17:20:44.240Z,24.23
2022-09-10T17:23:13.847Z,24.21
2022-09-10T17:25:42.794Z,24.19
2022-09-10T17:28:11.534Z,24.16
2022-09-10T17:30:40.137Z,24.14
2022-09-10T17:33:08.902Z,24.13
2022-09-10T17:35:37.586Z,24.14
2022-09-10T17:38:06.787Z,24.13
2022-09-10T17:40:35.680Z,24.13
2022-09-10T17:43:04.366Z,24.15
2022-09-10T17:45:33.775Z,24.16
2022-09-10T17:48:02.865Z,24.17
2022-09-10T17:50:31.553Z,24.18
2022-09-10T17:53:00.239Z,24.18
2022-09-10T17:55:33.465Z,24.18
2022-09-10T17:58:02.425Z,24.17
2022-09-10T18:00:31.212Z,24.16
2022-09-10T18:02:59.939Z,24.14
2022-09-10T18:05:29.506Z,24.11
2022-09-10T18:07:58.398Z,24.08
2022-09-10T18:10:27.186Z,24.04
2022-09-10T18:13:00.159Z,23.99
2022-09-10T18:15:30.397Z,23.95
2022-09-10T18:17:59.671Z,23.91
2022-09-10T18:20:29.729Z,23.87
2022-09-10T18:22:59.221Z,23.84
2022-09-10T18:25:32.925Z,23.80
2022-09-10T18:28:01.928Z,23.76
2022-09-10T18:30:30.610Z,23.71
2022-09-10T18:32:59.497Z,23.68
2022-09-10T18:35:28.085Z,23.66
2022-09-10T18:37:57.690Z,23.62
2022-09-10T18:40:26.377Z,23.58
2022-09-10T18:42:55.276Z,23.55
2022-09-10T18:45:23.886Z,23.53
2022-09-10T18:47:52.850Z,23.52
2022-09-10T18:50:21.531Z,23.50
2022-09-10T18:52:50.322Z,23.50
2022-09-10T18:55:19.008Z,23.53
2022-09-10T18:57:48.411Z,23.55
2022-09-10T19:00:16.930Z,23.58
2022-09-10T19:02:46.107Z,23.60
2022-09-10T19:05:14.989Z,23.63
2022-09-10T19:07:43.980Z,23.64
2022-09-10T19:10:12.765Z,23.65
2022-09-10T19:12:41.352Z,23.66
2022-09-10T19:15:10.863Z,23.66
2022-09-10T19:17:40.157Z,23.66
2022-09-10T19:20:10.182Z,23.65
2022-09-10T19:22:38.865Z,23.62
2022-09-10T19:25:07.986Z,23.59
2022-09-10T19:27:36.961Z,23.56
2022-09-10T19:30:06.735Z,23.52
2022-09-10T19:32:35.450Z,23.48
2022-09-10T19:35:04.399Z,23.44
2022-09-10T19:37:33.335Z,23.38
2022-09-10T19:40:02.521Z,23.32
2022-09-10T19:42:31.229Z,23.26
2022-09-10T19:45:00.004Z,23.20
2022-09-10T19:47:28.583Z,23.13
2022-09-10T19:49:59.444Z,23.06
2022-09-10T19:52:28.120Z,23.01
2022-09-10T19:54:57.316Z,22.97
2022-09-10T19:57:25.901Z,22.96
2022-09-10T19:59:54.891Z,22.95
2022-09-10T20:02:23.529Z,22.92
2022-09-10T20:04:52.065Z,22.82
2022-09-10T20:07:21.949Z,22.71
2022-09-10T20:09:50.663Z,22.61
2022-09-10T20:12:19.351Z,22.55
2022-09-10T20:14:48.342Z,22.51
2022-09-10T20:17:17.457Z,22.49
2022-09-10T20:19:46.020Z,22.49
2022-09-10T20:22:14.602Z,22.50
2022-09-10T20:24:43.194Z,22.51
2022-09-10T20:27:11.981Z,22.52
2022-09-10T20:29:41.793Z,22.52
2022-09-10T20:32:10.377Z,22.52
2022-09-10T20:34:39.063Z,22.51
2022-09-10T20:37:07.755Z,22.50
2022-09-10T20:39:36.688Z,22.48
2022-09-10T20:42:06.251Z,22.46
2022-09-10T20:44:34.833Z,22.45
2022-09-10T20:47:04.034Z,22.45
2022-09-10T20:49:32.925Z,22.45
2022-09-10T20:52:01.506Z,22.45
2022-09-10T20:54:30.400Z,22.45
2022-09-10T20:56:58.984Z,22.45
2022-09-10T20:59:29.532Z,22.45
2022-09-10T21:01:58.284Z,22.46
2022-09-10T21:04:27.403Z,22.48
2022-09-10T21:06:55.860Z,22.49
2022-09-10T21:09:25.001Z,22.49
2022-09-10T21:11:53.765Z,22.50
2022-09-10T21:14:22.457Z,22.52
2022-09-10T21:16:51.241Z,22.53
2022-09-10T21:19:19.872Z,22.53
2022-09-10T21:21:51.704Z,22.49
2022-09-10T21:24:22.933Z,22.45
2022-09-10T21:26:53.593Z,22.40
2022-09-10T21:29:22.966Z,22.34
2022-09-10T21:31:53.705Z,22.29
2022-09-10T21:34:23.878Z,22.25
2022-09-10T21:36:52.613Z,22.20
2022-09-10T21:39:21.217Z,22.15
2022-09-10T21:41:51.052Z,22.09
2022-09-10T21:44:22.333Z,22.05
2022-09-10T21:46:52.623Z,22.03
2022-09-10T21:49:21.473Z,21.99
2022-09-10T21:51:50.811Z,21.98
2022-09-10T21:54:21.285Z,21.97
2022-09-10T21:56:51.535Z,21.96
2022-09-10T21:59:21.850Z,21.95
2022-09-10T22:01:50.884Z,21.94
2022-09-10T22:04:22.774Z,21.95
2022-09-10T22:06:54.249Z,21.96
2022-09-10T22:09:24.703Z,21.97
2022-09-10T22:11:54.607Z,21.97
2022-09-10T22:14:25.144Z,21.97
2022-09-10T22:16:54.641Z,21.95
2022-09-10T22:19:25.399Z,21.93
2022-09-10T22:21:56.299Z,21.92
2022-09-10T22:24:26.430Z,21.89
2022-09-10T22:26:55.333Z,21.85
2022-09-10T22:29:25.357Z,21.81
2022-09-10T22:31:54.238Z,21.76
2022-09-10T22:34:23.537Z,21.71
2022-09-10T22:36:52.117Z,21.68
2022-09-10T22:39:22.134Z,21.65
2022-09-10T22:41:51.845Z,21.63
2022-09-10T22:44:20.641Z,21.62
2022-09-10T22:46:49.899Z,21.60
2022-09-10T22:49:20.158Z,21.59
2022-09-10T22:51:49.470Z,21.59
2022-09-10T22:54:18.459Z,21.59
2022-09-10T22:56:47.139Z,21.59
2022-09-10T22:59:16.241Z,21.61
2022-09-10T23:01:48.703Z,21.62
2022-09-10T23:04:17.601Z,21.63
2022-09-10T23:06:46.506Z,21.64
2022-09-10T23:09:17.752Z,21.64
2022-09-10T23:11:46.913Z,21.65
2022-09-10T23:14:19.491Z,21.65
2022-09-10T23:16:50.384Z,21.62
2022-09-10T23:19:22.854Z,21.60
2022-09-10T23:21:54.886Z,21.59
2022-09-10T23:24:25.402Z,21.56
2022-09-10T23:26:54.672Z,21.52
2022-09-10T23:29:24.414Z,21.48
2022-09-10T23:31:55.994Z,21.45
2022-09-10T23:34:24.694Z,21.44
2022-09-10T23:36:53.969Z,21.40
2022-09-10T23:39:24.983Z,21.35
2022-09-10T23:41:58.461Z,21.31
2022-09-10T23:44:27.207Z,21.29
2022-09-10T23:46:56.004Z,21.25
2022-09-10T23:49:24.683Z,21.22
2022-09-10T23:51:53.577Z,21.22
2022-09-10T23:54:22.258Z,21.24
2022-09-10T23:56:51.870Z,21.26
2022-09-10T23:59:20.762Z,21.28
